sensor_id;sensor_type;location;lat;lon;timestamp;temperature;humidity
10089;DHT22;51898;49.864;8.550;2024-03-08T00:02:41;5.00;67.30
10089;DHT22;51898;49.864;8.550;2024-03-08T00:05:43;4.90;67.20
10089;DHT22;51898;49.864;8.550;2024-03-08T00:08:45;4.80;67.50
10089;DHT22;51898;49.864;8.550;2024-03-08T00:11:47;4.80;67.50
10089;DHT22;51898;49.864;8.550;2024-03-08T00:14:50;4.80;67.60
10089;DHT22;51898;49.864;8.550;2024-03-08T00:17:52;4.70;67.60
10089;DHT22;51898;49.864;8.550;2024-03-08T00:20:55;4.70;67.60
10089;DHT22;51898;49.864;8.550;2024-03-08T00:23:57;4.60;67.90
10089;DHT22;51898;49.864;8.550;2024-03-08T00:26:59;4.60;67.90
10089;DHT22;51898;49.864;8.550;2024-03-08T00:30:02;4.50;67.90
10089;DHT22;51898;49.864;8.550;2024-03-08T00:33:04;4.50;68.00
10089;DHT22;51898;49.864;8.550;2024-03-08T00:36:06;4.50;67.90
10089;DHT22;51898;49.864;8.550;2024-03-08T00:39:12;4.40;68.00
10089;DHT22;51898;49.864;8.550;2024-03-08T00:42:15;4.40;67.90
10089;DHT22;51898;49.864;8.550;2024-03-08T00:45:17;4.30;68.00
10089;DHT22;51898;49.864;8.550;2024-03-08T00:48:18;4.30;68.30
10089;DHT22;51898;49.864;8.550;2024-03-08T00:51:20;4.30;68.10
10089;DHT22;51898;49.864;8.550;2024-03-08T00:54:22;4.30;68.10
10089;DHT22;51898;49.864;8.550;2024-03-08T00:57:24;4.20;68.30
10089;DHT22;51898;49.864;8.550;2024-03-08T01:00:26;4.20;68.40
10089;DHT22;51898;49.864;8.550;2024-03-08T01:03:28;4.10;68.40
10089;DHT22;51898;49.864;8.550;2024-03-08T01:06:30;4.10;68.50
10089;DHT22;51898;49.864;8.550;2024-03-08T01:09:32;4.00;68.80
10089;DHT22;51898;49.864;8.550;2024-03-08T01:12:33;4.00;69.10
10089;DHT22;51898;49.864;8.550;2024-03-08T01:15:36;3.90;69.10
10089;DHT22;51898;49.864;8.550;2024-03-08T01:18:38;3.90;69.20
10089;DHT22;51898;49.864;8.550;2024-03-08T01:21:40;3.90;69.40
10089;DHT22;51898;49.864;8.550;2024-03-08T01:24:41;3.80;69.30
10089;DHT22;51898;49.864;8.550;2024-03-08T01:27:43;3.80;69.50
10089;DHT22;51898;49.864;8.550;2024-03-08T01:30:45;3.70;69.60
10089;DHT22;51898;49.864;8.550;2024-03-08T01:33:47;3.70;69.70
10089;DHT22;51898;49.864;8.550;2024-03-08T01:36:49;3.70;69.90
10089;DHT22;51898;49.864;8.550;2024-03-08T01:39:50;3.70;69.90
10089;DHT22;51898;49.864;8.550;2024-03-08T01:42:52;3.60;70.10
10089;DHT22;51898;49.864;8.550;2024-03-08T01:45:57;3.60;70.30
10089;DHT22;51898;49.864;8.550;2024-03-08T01:49:03;3.50;70.70
10089;DHT22;51898;49.864;8.550;2024-03-08T01:52:05;3.50;70.80
10089;DHT22;51898;49.864;8.550;2024-03-08T01:55:07;3.50;70.70
10089;DHT22;51898;49.864;8.550;2024-03-08T01:58:10;3.50;70.90
10089;DHT22;51898;49.864;8.550;2024-03-08T02:01:13;3.40;71.00
10089;DHT22;51898;49.864;8.550;2024-03-08T02:04:18;3.30;71.30
10089;DHT22;51898;49.864;8.550;2024-03-08T02:07:20;3.30;71.40
10089;DHT22;51898;49.864;8.550;2024-03-08T02:10:23;3.30;71.60
10089;DHT22;51898;49.864;8.550;2024-03-08T02:13:25;3.30;71.60
10089;DHT22;51898;49.864;8.550;2024-03-08T02:16:27;3.30;71.90
10089;DHT22;51898;49.864;8.550;2024-03-08T02:19:32;3.30;71.90
10089;DHT22;51898;49.864;8.550;2024-03-08T02:22:34;3.20;72.00
10089;DHT22;51898;49.864;8.550;2024-03-08T02:25:36;3.20;72.00
10089;DHT22;51898;49.864;8.550;2024-03-08T02:28:38;3.20;72.30
10089;DHT22;51898;49.864;8.550;2024-03-08T02:31:40;3.20;72.50
10089;DHT22;51898;49.864;8.550;2024-03-08T02:34:42;3.10;72.40
10089;DHT22;51898;49.864;8.550;2024-03-08T02:37:44;3.10;72.80
10089;DHT22;51898;49.864;8.550;2024-03-08T02:40:50;3.00;73.20
10089;DHT22;51898;49.864;8.550;2024-03-08T02:43:52;3.00;73.20
10089;DHT22;51898;49.864;8.550;2024-03-08T02:46:54;3.00;73.20
10089;DHT22;51898;49.864;8.550;2024-03-08T02:49:56;3.00;73.20
10089;DHT22;51898;49.864;8.550;2024-03-08T02:52:58;2.90;73.30
10089;DHT22;51898;49.864;8.550;2024-03-08T02:56:00;2.80;73.80
10089;DHT22;51898;49.864;8.550;2024-03-08T02:59:02;2.80;74.00
10089;DHT22;51898;49.864;8.550;2024-03-08T03:02:04;2.80;74.20
10089;DHT22;51898;49.864;8.550;2024-03-08T03:05:06;2.70;74.40
10089;DHT22;51898;49.864;8.550;2024-03-08T03:08:08;2.70;74.40
10089;DHT22;51898;49.864;8.550;2024-03-08T03:11:11;2.70;74.70
10089;DHT22;51898;49.864;8.550;2024-03-08T03:14:14;2.70;74.80
10089;DHT22;51898;49.864;8.550;2024-03-08T03:17:17;2.70;74.70
10089;DHT22;51898;49.864;8.550;2024-03-08T03:20:19;2.70;74.60
10089;DHT22;51898;49.864;8.550;2024-03-08T03:23:43;2.70;74.60
10089;DHT22;51898;49.864;8.550;2024-03-08T03:26:44;2.60;74.90
10089;DHT22;51898;49.864;8.550;2024-03-08T03:29:47;2.60;75.10
10089;DHT22;51898;49.864;8.550;2024-03-08T03:32:50;2.50;75.40
10089;DHT22;51898;49.864;8.550;2024-03-08T03:35:53;2.50;75.40
10089;DHT22;51898;49.864;8.550;2024-03-08T03:38:55;2.50;75.40
10089;DHT22;51898;49.864;8.550;2024-03-08T03:42:12;2.50;75.40
10089;DHT22;51898;49.864;8.550;2024-03-08T03:45:14;2.40;75.60
10089;DHT22;51898;49.864;8.550;2024-03-08T03:48:16;2.40;75.80
10089;DHT22;51898;49.864;8.550;2024-03-08T03:51:18;2.40;75.80
10089;DHT22;51898;49.864;8.550;2024-03-08T03:54:20;2.40;76.10
10089;DHT22;51898;49.864;8.550;2024-03-08T03:57:22;2.30;76.30
10089;DHT22;51898;49.864;8.550;2024-03-08T04:00:24;2.30;76.40
10089;DHT22;51898;49.864;8.550;2024-03-08T04:03:29;2.30;76.60
10089;DHT22;51898;49.864;8.550;2024-03-08T04:06:30;2.20;76.80
10089;DHT22;51898;49.864;8.550;2024-03-08T04:09:34;2.20;77.10
10089;DHT22;51898;49.864;8.550;2024-03-08T04:12:36;2.20;77.20
10089;DHT22;51898;49.864;8.550;2024-03-08T04:15:38;2.20;77.20
10089;DHT22;51898;49.864;8.550;2024-03-08T04:18:40;2.10;77.50
10089;DHT22;51898;49.864;8.550;2024-03-08T04:21:42;2.10;77.70
10089;DHT22;51898;49.864;8.550;2024-03-08T04:24:44;2.10;77.80
10089;DHT22;51898;49.864;8.550;2024-03-08T04:27:46;2.00;78.10
10089;DHT22;51898;49.864;8.550;2024-03-08T04:30:48;2.00;78.30
10089;DHT22;51898;49.864;8.550;2024-03-08T04:33:52;1.90;78.40
10089;DHT22;51898;49.864;8.550;2024-03-08T04:36:56;1.90;78.60
10089;DHT22;51898;49.864;8.550;2024-03-08T04:39:58;1.90;78.70
10089;DHT22;51898;49.864;8.550;2024-03-08T04:43:01;1.80;79.00
10089;DHT22;51898;49.864;8.550;2024-03-08T04:46:02;1.80;79.10
10089;DHT22;51898;49.864;8.550;2024-03-08T04:49:05;1.70;79.30
10089;DHT22;51898;49.864;8.550;2024-03-08T04:52:08;1.70;79.70
10089;DHT22;51898;49.864;8.550;2024-03-08T04:55:10;1.70;79.80
10089;DHT22;51898;49.864;8.550;2024-03-08T04:58:12;1.70;80.00
10089;DHT22;51898;49.864;8.550;2024-03-08T05:01:14;1.70;80.00
10089;DHT22;51898;49.864;8.550;2024-03-08T05:04:16;1.60;80.20
10089;DHT22;51898;49.864;8.550;2024-03-08T05:07:18;1.60;80.40
10089;DHT22;51898;49.864;8.550;2024-03-08T05:10:21;1.60;80.60
10089;DHT22;51898;49.864;8.550;2024-03-08T05:13:23;1.60;80.70
10089;DHT22;51898;49.864;8.550;2024-03-08T05:16:25;1.50;80.80
10089;DHT22;51898;49.864;8.550;2024-03-08T05:19:26;1.50;81.00
10089;DHT22;51898;49.864;8.550;2024-03-08T05:22:30;1.40;81.20
10089;DHT22;51898;49.864;8.550;2024-03-08T05:25:32;1.40;81.40
10089;DHT22;51898;49.864;8.550;2024-03-08T05:28:34;1.40;81.70
10089;DHT22;51898;49.864;8.550;2024-03-08T05:31:49;1.30;81.70
10089;DHT22;51898;49.864;8.550;2024-03-08T05:34:51;1.20;81.90
10089;DHT22;51898;49.864;8.550;2024-03-08T05:37:53;1.30;82.00
10089;DHT22;51898;49.864;8.550;2024-03-08T05:40:55;1.20;82.20
10089;DHT22;51898;49.864;8.550;2024-03-08T05:43:56;1.20;82.40
10089;DHT22;51898;49.864;8.550;2024-03-08T05:46:58;1.20;82.60
10089;DHT22;51898;49.864;8.550;2024-03-08T05:50:00;1.10;82.90
10089;DHT22;51898;49.864;8.550;2024-03-08T05:53:02;1.10;82.90
10089;DHT22;51898;49.864;8.550;2024-03-08T05:56:04;1.10;83.10
10089;DHT22;51898;49.864;8.550;2024-03-08T05:59:06;1.00;83.40
10089;DHT22;51898;49.864;8.550;2024-03-08T06:02:07;0.90;83.70
10089;DHT22;51898;49.864;8.550;2024-03-08T06:05:10;0.90;83.90
10089;DHT22;51898;49.864;8.550;2024-03-08T06:08:12;0.90;84.10
10089;DHT22;51898;49.864;8.550;2024-03-08T06:11:17;0.80;84.30
10089;DHT22;51898;49.864;8.550;2024-03-08T06:14:19;0.80;84.50
10089;DHT22;51898;49.864;8.550;2024-03-08T06:17:21;0.80;84.60
10089;DHT22;51898;49.864;8.550;2024-03-08T06:20:27;0.80;84.70
10089;DHT22;51898;49.864;8.550;2024-03-08T06:23:28;0.80;84.70
10089;DHT22;51898;49.864;8.550;2024-03-08T06:26:30;0.80;84.60
10089;DHT22;51898;49.864;8.550;2024-03-08T06:29:34;0.80;84.60
10089;DHT22;51898;49.864;8.550;2024-03-08T06:32:36;0.80;84.50
10089;DHT22;51898;49.864;8.550;2024-03-08T06:35:38;0.90;84.40
10089;DHT22;51898;49.864;8.550;2024-03-08T06:38:40;0.90;84.40
10089;DHT22;51898;49.864;8.550;2024-03-08T06:41:44;0.90;84.40
10089;DHT22;51898;49.864;8.550;2024-03-08T06:44:46;1.00;84.20
10089;DHT22;51898;49.864;8.550;2024-03-08T06:47:51;1.00;84.10
10089;DHT22;51898;49.864;8.550;2024-03-08T06:50:53;1.00;83.90
10089;DHT22;51898;49.864;8.550;2024-03-08T06:53:54;1.10;83.90
10089;DHT22;51898;49.864;8.550;2024-03-08T06:56:56;1.10;83.80
10089;DHT22;51898;49.864;8.550;2024-03-08T06:59:58;1.20;83.60
10089;DHT22;51898;49.864;8.550;2024-03-08T07:03:00;1.30;83.50
10089;DHT22;51898;49.864;8.550;2024-03-08T07:06:05;1.30;83.30
10089;DHT22;51898;49.864;8.550;2024-03-08T07:09:09;1.40;83.00
10089;DHT22;51898;49.864;8.550;2024-03-08T07:12:10;1.50;82.90
10089;DHT22;51898;49.864;8.550;2024-03-08T07:15:15;1.50;82.50
10089;DHT22;51898;49.864;8.550;2024-03-08T07:18:17;1.60;82.30
10089;DHT22;51898;49.864;8.550;2024-03-08T07:21:19;1.70;82.00
10089;DHT22;51898;49.864;8.550;2024-03-08T07:24:21;1.80;81.60
10089;DHT22;51898;49.864;8.550;2024-03-08T07:27:57;1.90;81.60
10089;DHT22;51898;49.864;8.550;2024-03-08T07:30:59;2.00;81.20
10089;DHT22;51898;49.864;8.550;2024-03-08T07:34:27;2.10;80.50
10089;DHT22;51898;49.864;8.550;2024-03-08T07:37:29;2.20;80.20
10089;DHT22;51898;49.864;8.550;2024-03-08T07:40:34;2.30;80.10
10089;DHT22;51898;49.864;8.550;2024-03-08T07:43:36;2.40;79.50
10089;DHT22;51898;49.864;8.550;2024-03-08T07:46:38;2.50;79.00
10089;DHT22;51898;49.864;8.550;2024-03-08T07:49:39;2.60;78.90
10089;DHT22;51898;49.864;8.550;2024-03-08T07:52:41;2.70;78.50
10089;DHT22;51898;49.864;8.550;2024-03-08T07:55:43;2.80;77.80
10089;DHT22;51898;49.864;8.550;2024-03-08T07:58:46;3.00;77.90
10089;DHT22;51898;49.864;8.550;2024-03-08T08:01:48;3.10;77.10
10089;DHT22;51898;49.864;8.550;2024-03-08T08:04:49;3.20;76.80
10089;DHT22;51898;49.864;8.550;2024-03-08T08:07:51;3.30;76.50
10089;DHT22;51898;49.864;8.550;2024-03-08T08:10:54;3.30;76.10
10089;DHT22;51898;49.864;8.550;2024-03-08T08:13:56;3.50;75.80
10089;DHT22;51898;49.864;8.550;2024-03-08T08:16:58;3.70;75.30
10089;DHT22;51898;49.864;8.550;2024-03-08T08:20:05;3.90;74.50
10089;DHT22;51898;49.864;8.550;2024-03-08T08:23:07;4.00;73.90
10089;DHT22;51898;49.864;8.550;2024-03-08T08:26:10;4.10;73.60
10089;DHT22;51898;49.864;8.550;2024-03-08T08:29:12;4.10;72.90
10089;DHT22;51898;49.864;8.550;2024-03-08T08:32:14;4.30;72.90
10089;DHT22;51898;49.864;8.550;2024-03-08T08:35:16;4.50;72.70
10089;DHT22;51898;49.864;8.550;2024-03-08T08:38:20;4.60;71.90
10089;DHT22;51898;49.864;8.550;2024-03-08T08:41:22;4.70;71.20
10089;DHT22;51898;49.864;8.550;2024-03-08T08:44:23;4.70;71.00
10089;DHT22;51898;49.864;8.550;2024-03-08T08:47:25;4.90;70.50
10089;DHT22;51898;49.864;8.550;2024-03-08T08:50:27;5.00;69.80
10089;DHT22;51898;49.864;8.550;2024-03-08T08:53:29;5.10;69.90
10089;DHT22;51898;49.864;8.550;2024-03-08T08:56:31;5.20;68.90
10089;DHT22;51898;49.864;8.550;2024-03-08T08:59:34;5.40;68.60
10089;DHT22;51898;49.864;8.550;2024-03-08T09:02:44;5.40;68.40
10089;DHT22;51898;49.864;8.550;2024-03-08T09:05:46;5.50;67.80
10089;DHT22;51898;49.864;8.550;2024-03-08T09:08:48;5.70;67.80
10089;DHT22;51898;49.864;8.550;2024-03-08T09:11:50;5.80;67.10
10089;DHT22;51898;49.864;8.550;2024-03-08T09:14:53;6.00;66.30
10089;DHT22;51898;49.864;8.550;2024-03-08T09:17:54;6.20;66.20
10089;DHT22;51898;49.864;8.550;2024-03-08T09:20:56;6.20;65.90
10089;DHT22;51898;49.864;8.550;2024-03-08T09:23:58;6.20;65.50
10089;DHT22;51898;49.864;8.550;2024-03-08T09:27:00;6.20;64.60
10089;DHT22;51898;49.864;8.550;2024-03-08T09:30:02;6.20;64.60
10089;DHT22;51898;49.864;8.550;2024-03-08T09:33:05;6.50;64.80
10089;DHT22;51898;49.864;8.550;2024-03-08T09:36:08;6.50;64.50
10089;DHT22;51898;49.864;8.550;2024-03-08T09:39:10;6.50;63.70
10089;DHT22;51898;49.864;8.550;2024-03-08T09:42:18;6.50;63.80
10089;DHT22;51898;49.864;8.550;2024-03-08T09:45:21;6.50;63.60
10089;DHT22;51898;49.864;8.550;2024-03-08T09:48:26;6.60;63.20
10089;DHT22;51898;49.864;8.550;2024-03-08T09:51:28;6.80;63.00
10089;DHT22;51898;49.864;8.550;2024-03-08T09:54:31;6.80;62.80
10089;DHT22;51898;49.864;8.550;2024-03-08T09:57:36;6.90;62.80
10089;DHT22;51898;49.864;8.550;2024-03-08T10:00:38;6.90;62.40
10089;DHT22;51898;49.864;8.550;2024-03-08T10:03:39;6.90;61.50
10089;DHT22;51898;49.864;8.550;2024-03-08T10:06:41;7.00;62.20
10089;DHT22;51898;49.864;8.550;2024-03-08T10:09:43;7.10;61.70
10089;DHT22;51898;49.864;8.550;2024-03-08T10:12:51;7.20;61.30
10089;DHT22;51898;49.864;8.550;2024-03-08T10:15:53;7.40;61.00
10089;DHT22;51898;49.864;8.550;2024-03-08T10:18:59;7.40;61.40
10089;DHT22;51898;49.864;8.550;2024-03-08T10:22:02;7.50;61.60
10089;DHT22;51898;49.864;8.550;2024-03-08T10:25:06;7.70;59.90
10089;DHT22;51898;49.864;8.550;2024-03-08T10:28:08;7.70;60.20
10089;DHT22;51898;49.864;8.550;2024-03-08T10:31:10;7.80;60.00
10089;DHT22;51898;49.864;8.550;2024-03-08T10:34:12;7.80;59.80
10089;DHT22;51898;49.864;8.550;2024-03-08T10:37:15;8.00;59.90
10089;DHT22;51898;49.864;8.550;2024-03-08T10:40:26;8.20;59.50
10089;DHT22;51898;49.864;8.550;2024-03-08T10:43:32;8.00;59.30
10089;DHT22;51898;49.864;8.550;2024-03-08T10:53:11;8.40;59.00
10089;DHT22;51898;49.864;8.550;2024-03-08T10:56:15;8.50;58.90
10089;DHT22;51898;49.864;8.550;2024-03-08T10:59:18;8.40;58.10
10089;DHT22;51898;49.864;8.550;2024-03-08T11:02:20;8.40;57.80
10089;DHT22;51898;49.864;8.550;2024-03-08T11:05:39;8.60;57.50
10089;DHT22;51898;49.864;8.550;2024-03-08T11:08:46;8.80;57.20
10089;DHT22;51898;49.864;8.550;2024-03-08T11:11:48;9.00;57.50
10089;DHT22;51898;49.864;8.550;2024-03-08T11:14:50;9.10;56.20
10089;DHT22;51898;49.864;8.550;2024-03-08T11:17:53;9.10;56.40
10089;DHT22;51898;49.864;8.550;2024-03-08T11:20:57;9.20;56.70
10089;DHT22;51898;49.864;8.550;2024-03-08T11:24:07;9.10;56.90
10089;DHT22;51898;49.864;8.550;2024-03-08T11:27:09;9.10;57.10
10089;DHT22;51898;49.864;8.550;2024-03-08T11:30:12;9.10;56.70
10089;DHT22;51898;49.864;8.550;2024-03-08T11:33:29;9.10;56.10
10089;DHT22;51898;49.864;8.550;2024-03-08T11:36:34;9.20;55.80
10089;DHT22;51898;49.864;8.550;2024-03-08T11:39:39;9.30;56.10
10089;DHT22;51898;49.864;8.550;2024-03-08T11:42:44;9.30;55.90
10089;DHT22;51898;49.864;8.550;2024-03-08T11:45:49;9.30;55.80
10089;DHT22;51898;49.864;8.550;2024-03-08T11:48:54;9.50;55.20
10089;DHT22;51898;49.864;8.550;2024-03-08T11:51:57;9.70;54.80
10089;DHT22;51898;49.864;8.550;2024-03-08T11:54:59;9.60;55.10
10089;DHT22;51898;49.864;8.550;2024-03-08T11:58:02;9.60;55.70
10089;DHT22;51898;49.864;8.550;2024-03-08T12:01:11;9.50;55.40
10089;DHT22;51898;49.864;8.550;2024-03-08T12:04:21;9.60;55.10
10089;DHT22;51898;49.864;8.550;2024-03-08T12:07:26;9.60;55.50
10089;DHT22;51898;49.864;8.550;2024-03-08T12:10:29;9.60;55.30
10089;DHT22;51898;49.864;8.550;2024-03-08T12:13:33;9.80;55.10
10089;DHT22;51898;49.864;8.550;2024-03-08T12:16:37;10.10;54.30
10089;DHT22;51898;49.864;8.550;2024-03-08T12:19:39;10.00;54.40
10089;DHT22;51898;49.864;8.550;2024-03-08T12:22:42;9.80;53.90
10089;DHT22;51898;49.864;8.550;2024-03-08T12:25:44;9.80;54.40
10089;DHT22;51898;49.864;8.550;2024-03-08T12:28:46;9.90;54.70
10089;DHT22;51898;49.864;8.550;2024-03-08T12:31:55;10.00;53.90
10089;DHT22;51898;49.864;8.550;2024-03-08T12:34:57;10.20;54.20
10089;DHT22;51898;49.864;8.550;2024-03-08T12:37:59;10.20;53.70
10089;DHT22;51898;49.864;8.550;2024-03-08T12:41:01;10.10;54.10
10089;DHT22;51898;49.864;8.550;2024-03-08T12:44:04;10.20;53.80
10089;DHT22;51898;49.864;8.550;2024-03-08T12:47:09;9.90;54.20
10089;DHT22;51898;49.864;8.550;2024-03-08T12:50:10;10.00;54.70
10089;DHT22;51898;49.864;8.550;2024-03-08T12:53:12;10.30;54.00
10089;DHT22;51898;49.864;8.550;2024-03-08T12:56:30;10.30;54.00
10089;DHT22;51898;49.864;8.550;2024-03-08T12:59:32;10.40;54.30
10089;DHT22;51898;49.864;8.550;2024-03-08T13:02:34;10.60;53.20
10089;DHT22;51898;49.864;8.550;2024-03-08T13:05:37;10.60;53.30
10089;DHT22;51898;49.864;8.550;2024-03-08T13:08:41;10.70;53.20
10089;DHT22;51898;49.864;8.550;2024-03-08T13:11:43;10.70;52.90
10089;DHT22;51898;49.864;8.550;2024-03-08T13:14:45;10.60;53.70
10089;DHT22;51898;49.864;8.550;2024-03-08T13:17:47;10.60;53.80
10089;DHT22;51898;49.864;8.550;2024-03-08T13:20:50;10.80;53.20
10089;DHT22;51898;49.864;8.550;2024-03-08T13:23:53;10.60;53.20
10089;DHT22;51898;49.864;8.550;2024-03-08T13:26:56;10.70;53.50
10089;DHT22;51898;49.864;8.550;2024-03-08T13:29:59;10.80;53.00
10089;DHT22;51898;49.864;8.550;2024-03-08T13:33:01;10.90;52.90
10089;DHT22;51898;49.864;8.550;2024-03-08T13:36:06;10.90;53.00
10089;DHT22;51898;49.864;8.550;2024-03-08T13:39:16;10.80;53.20
10089;DHT22;51898;49.864;8.550;2024-03-08T13:42:17;10.90;53.20
10089;DHT22;51898;49.864;8.550;2024-03-08T13:45:20;10.90;52.90
10089;DHT22;51898;49.864;8.550;2024-03-08T13:48:26;11.00;53.10
10089;DHT22;51898;49.864;8.550;2024-03-08T13:51:28;11.20;53.10
10089;DHT22;51898;49.864;8.550;2024-03-08T13:54:30;11.40;52.40
10089;DHT22;51898;49.864;8.550;2024-03-08T13:57:33;11.30;51.70
10089;DHT22;51898;49.864;8.550;2024-03-08T14:00:38;11.00;52.30
10089;DHT22;51898;49.864;8.550;2024-03-08T14:03:40;10.90;52.80
10089;DHT22;51898;49.864;8.550;2024-03-08T14:06:44;11.10;52.50
10089;DHT22;51898;49.864;8.550;2024-03-08T14:09:46;11.00;53.30
10089;DHT22;51898;49.864;8.550;2024-03-08T14:12:48;11.10;52.90
10089;DHT22;51898;49.864;8.550;2024-03-08T14:15:52;10.90;53.20
10089;DHT22;51898;49.864;8.550;2024-03-08T14:18:55;11.00;53.00
10089;DHT22;51898;49.864;8.550;2024-03-08T14:21:57;11.20;52.60
10089;DHT22;51898;49.864;8.550;2024-03-08T14:25:00;11.10;53.00
10089;DHT22;51898;49.864;8.550;2024-03-08T14:28:06;11.00;52.60
10089;DHT22;51898;49.864;8.550;2024-03-08T14:31:09;11.20;52.70
10089;DHT22;51898;49.864;8.550;2024-03-08T14:34:22;11.20;52.00
10089;DHT22;51898;49.864;8.550;2024-03-08T14:37:28;11.10;52.50
10089;DHT22;51898;49.864;8.550;2024-03-08T14:40:31;11.10;52.40
10089;DHT22;51898;49.864;8.550;2024-03-08T14:43:33;11.10;52.30
10089;DHT22;51898;49.864;8.550;2024-03-08T14:46:35;11.10;52.60
10089;DHT22;51898;49.864;8.550;2024-03-08T14:49:37;11.10;52.50
10089;DHT22;51898;49.864;8.550;2024-03-08T14:52:39;11.20;52.30
10089;DHT22;51898;49.864;8.550;2024-03-08T14:55:42;11.20;52.50
10089;DHT22;51898;49.864;8.550;2024-03-08T14:58:46;11.10;52.50
10089;DHT22;51898;49.864;8.550;2024-03-08T15:01:51;11.20;52.20
10089;DHT22;51898;49.864;8.550;2024-03-08T15:04:55;11.30;52.10
10089;DHT22;51898;49.864;8.550;2024-03-08T15:08:03;11.30;52.30
10089;DHT22;51898;49.864;8.550;2024-03-08T15:11:11;11.40;51.90
10089;DHT22;51898;49.864;8.550;2024-03-08T15:14:13;11.40;52.00
10089;DHT22;51898;49.864;8.550;2024-03-08T15:17:15;11.40;52.00
10089;DHT22;51898;49.864;8.550;2024-03-08T15:20:22;11.50;51.70
10089;DHT22;51898;49.864;8.550;2024-03-08T15:23:38;11.60;51.50
10089;DHT22;51898;49.864;8.550;2024-03-08T15:26:43;11.60;51.30
10089;DHT22;51898;49.864;8.550;2024-03-08T15:29:49;11.60;51.30
10089;DHT22;51898;49.864;8.550;2024-03-08T15:32:53;11.70;51.30
10089;DHT22;51898;49.864;8.550;2024-03-08T15:35:59;11.80;50.80
10089;DHT22;51898;49.864;8.550;2024-03-08T15:39:05;11.90;50.50
10089;DHT22;51898;49.864;8.550;2024-03-08T15:42:11;11.80;50.10
10089;DHT22;51898;49.864;8.550;2024-03-08T15:45:13;11.70;50.00
10089;DHT22;51898;49.864;8.550;2024-03-08T15:48:15;11.60;49.70
10089;DHT22;51898;49.864;8.550;2024-03-08T15:51:17;11.60;50.20
10089;DHT22;51898;49.864;8.550;2024-03-08T15:54:21;11.70;50.30
10089;DHT22;51898;49.864;8.550;2024-03-08T15:57:23;11.80;50.40
10089;DHT22;51898;49.864;8.550;2024-03-08T16:00:24;11.80;49.20
10089;DHT22;51898;49.864;8.550;2024-03-08T16:03:38;11.80;50.00
10089;DHT22;51898;49.864;8.550;2024-03-08T16:06:39;11.80;49.20
10089;DHT22;51898;49.864;8.550;2024-03-08T16:09:42;11.80;48.90
10089;DHT22;51898;49.864;8.550;2024-03-08T16:12:44;11.60;49.60
10089;DHT22;51898;49.864;8.550;2024-03-08T16:15:47;11.70;49.50
10089;DHT22;51898;49.864;8.550;2024-03-08T16:18:52;11.80;49.10
10089;DHT22;51898;49.864;8.550;2024-03-08T16:21:56;11.60;48.70
10089;DHT22;51898;49.864;8.550;2024-03-08T16:24:59;11.50;49.10
10089;DHT22;51898;49.864;8.550;2024-03-08T16:28:01;11.50;49.10
10089;DHT22;51898;49.864;8.550;2024-03-08T16:31:02;11.40;49.10
10089;DHT22;51898;49.864;8.550;2024-03-08T16:34:06;11.30;49.40
10089;DHT22;51898;49.864;8.550;2024-03-08T16:37:09;11.20;49.40
10089;DHT22;51898;49.864;8.550;2024-03-08T16:40:13;11.10;49.80
10089;DHT22;51898;49.864;8.550;2024-03-08T16:43:19;11.10;49.80
10089;DHT22;51898;49.864;8.550;2024-03-08T16:46:21;11.00;49.90
10089;DHT22;51898;49.864;8.550;2024-03-08T16:49:23;11.00;50.20
10089;DHT22;51898;49.864;8.550;2024-03-08T16:52:25;10.90;50.10
10089;DHT22;51898;49.864;8.550;2024-03-08T16:55:28;10.90;49.80
10089;DHT22;51898;49.864;8.550;2024-03-08T16:58:31;10.80;50.20
10089;DHT22;51898;49.864;8.550;2024-03-08T17:01:35;10.80;50.40
10089;DHT22;51898;49.864;8.550;2024-03-08T17:04:39;10.70;50.20
10089;DHT22;51898;49.864;8.550;2024-03-08T17:07:45;10.60;50.40
10089;DHT22;51898;49.864;8.550;2024-03-08T17:10:50;10.50;51.00
10089;DHT22;51898;49.864;8.550;2024-03-08T17:13:52;10.40;50.80
10089;DHT22;51898;49.864;8.550;2024-03-08T17:16:54;10.30;51.30
10089;DHT22;51898;49.864;8.550;2024-03-08T17:19:58;10.20;51.50
10089;DHT22;51898;49.864;8.550;2024-03-08T17:23:00;10.10;51.80
10089;DHT22;51898;49.864;8.550;2024-03-08T17:26:04;10.00;51.80
10089;DHT22;51898;49.864;8.550;2024-03-08T17:29:09;10.00;51.80
10089;DHT22;51898;49.864;8.550;2024-03-08T17:32:11;9.90;52.10
10089;DHT22;51898;49.864;8.550;2024-03-08T17:35:13;9.90;52.30
10089;DHT22;51898;49.864;8.550;2024-03-08T17:38:19;9.80;52.50
10089;DHT22;51898;49.864;8.550;2024-03-08T17:41:23;9.70;53.10
10089;DHT22;51898;49.864;8.550;2024-03-08T17:44:27;9.50;53.20
10089;DHT22;51898;49.864;8.550;2024-03-08T17:47:33;9.50;53.20
10089;DHT22;51898;49.864;8.550;2024-03-08T17:50:35;9.50;53.10
10089;DHT22;51898;49.864;8.550;2024-03-08T17:53:37;9.40;52.90
10089;DHT22;51898;49.864;8.550;2024-03-08T17:56:42;9.40;53.30
10089;DHT22;51898;49.864;8.550;2024-03-08T17:59:44;9.30;53.20
10089;DHT22;51898;49.864;8.550;2024-03-08T18:02:48;9.30;53.30
10089;DHT22;51898;49.864;8.550;2024-03-08T18:05:53;9.20;53.30
10089;DHT22;51898;49.864;8.550;2024-03-08T18:08:55;9.10;53.50
10089;DHT22;51898;49.864;8.550;2024-03-08T18:11:57;9.10;53.60
10089;DHT22;51898;49.864;8.550;2024-03-08T18:15:00;9.00;53.70
10089;DHT22;51898;49.864;8.550;2024-03-08T18:18:03;8.90;53.90
10089;DHT22;51898;49.864;8.550;2024-03-08T18:21:05;8.80;53.80
10089;DHT22;51898;49.864;8.550;2024-03-08T18:24:07;8.80;53.80
10089;DHT22;51898;49.864;8.550;2024-03-08T18:27:10;8.70;53.90
10089;DHT22;51898;49.864;8.550;2024-03-08T18:30:12;8.70;54.10
10089;DHT22;51898;49.864;8.550;2024-03-08T18:33:17;8.60;54.30
10089;DHT22;51898;49.864;8.550;2024-03-08T18:36:20;8.50;54.50
10089;DHT22;51898;49.864;8.550;2024-03-08T18:39:22;8.40;54.90
10089;DHT22;51898;49.864;8.550;2024-03-08T18:42:28;8.30;55.50
10089;DHT22;51898;49.864;8.550;2024-03-08T18:45:30;8.20;56.20
10089;DHT22;51898;49.864;8.550;2024-03-08T18:48:33;8.10;56.80
10089;DHT22;51898;49.864;8.550;2024-03-08T18:51:34;8.00;57.30
10089;DHT22;51898;49.864;8.550;2024-03-08T18:54:37;7.90;57.90
10089;DHT22;51898;49.864;8.550;2024-03-08T18:57:40;7.90;58.30
10089;DHT22;51898;49.864;8.550;2024-03-08T19:00:46;7.90;58.70
10089;DHT22;51898;49.864;8.550;2024-03-08T19:03:51;7.80;59.00
10089;DHT22;51898;49.864;8.550;2024-03-08T19:06:52;7.70;59.30
10089;DHT22;51898;49.864;8.550;2024-03-08T19:09:54;7.70;59.70
10089;DHT22;51898;49.864;8.550;2024-03-08T19:12:59;7.60;60.20
10089;DHT22;51898;49.864;8.550;2024-03-08T19:16:00;7.50;60.50
10089;DHT22;51898;49.864;8.550;2024-03-08T19:19:02;7.50;61.70
10089;DHT22;51898;49.864;8.550;2024-03-08T19:22:05;7.40;60.90
10089;DHT22;51898;49.864;8.550;2024-03-08T19:25:07;7.30;60.90
10089;DHT22;51898;49.864;8.550;2024-03-08T19:28:12;7.30;61.10
10089;DHT22;51898;49.864;8.550;2024-03-08T19:31:23;7.20;61.50
10089;DHT22;51898;49.864;8.550;2024-03-08T19:34:25;7.10;61.80
10089;DHT22;51898;49.864;8.550;2024-03-08T19:37:28;7.00;62.00
10089;DHT22;51898;49.864;8.550;2024-03-08T19:40:31;6.90;62.60